Reklama

Seznam meteostanic a jejich METAR

Vyhledat místa podle abecedy:
A B C D E F G H I J K L M N O P Q R S T U V W X Y Z

Filtrovat:

ID stanice:
a/nebo
Název místa (fulltext):
 
Místo (ID)Naposledy načteno 
Gaborone (FBSK) 31.05.2020 03:00 UTC Zobrazit METAR
FBSK 310300Z 17002KT CAVOK 05/01 Q1026 NOSIG
Gaza (LVGZ) Zatím nenačteno  
Geneva (LSGG) 31.05.2020 02:50 UTC Zobrazit METAR
LSGG 310250Z AUTO VRB02KT CAVOK 09/06 Q1017 NOSIG
George Town (MWCR) 30.05.2020 23:00 UTC Zobrazit METAR
MWCR 302300Z 14007KT 9999 FEW018 30/25 Q1012
Georgetown (SYCJ) 31.05.2020 03:00 UTC Zobrazit METAR
SYCJ 310300Z 00000KT 9999 FEW016 24/24 Q1014 NOSIG
Gibraltar (LXGB) 30.05.2020 22:50 UTC Zobrazit METAR
LXGB 302250Z AUTO 08016KT 9999 // FEW240/// 20/16 Q1013
Glasgow (EGPF) 30.05.2020 11:50 UTC Zobrazit METAR
EGPF 301150Z AUTO 09011KT 9999 BKN043 22/12 Q1024
Gomel (UMGG) 30.08.2014 17:00 UTC Zobrazit METAR
UMGG 301700Z CAVOK 19/10 Q1017 R28/CLRD// NOSIG
Goteborg (ESGG) 31.05.2020 02:50 UTC Zobrazit METAR
ESGG 310250Z 03008KT CAVOK 08/04 Q1029
Grand Turk Island (MBGT) 30.05.2020 17:00 UTC Zobrazit METAR
MBGT 301700Z 15012KT 9999 SCT015 SCT050 29/23 Q1015
Graz (LOWG) 31.05.2020 02:50 UTC Zobrazit METAR
LOWG 310250Z AUTO VRB02KT 9999 NSC 05/03 Q1017
Grodno (UMMG) Zatím nenačteno  
Guatemala City (MGGT) 31.05.2020 03:00 UTC Zobrazit METAR
MGGT 310300Z 36008KT 5000 RA BKN012 OVC090 18/17 Q1023 A3021
Reklama

Lunární kalendář

  • 05.06.Fáze měsíce uplnek
  • 13.06.Fáze měsíce posl_ctvrt
  • 21.06.Fáze měsíce nov
  • 28.06.Fáze měsíce prv_ctvrt



Reklama
Meteodomečky

Počasí na Váš email

Emaily jsou bez reklamy a bez spamu



Odhlásit newsletter

Reklama


Další české internetové stránky (nejen) o počasí najdete v katalogu TOPlist - weby o počasí nebo vyhledejte na internetu, co jste tu na 🌞 Slunečnu ⛅ zatím nenašli:

Reklama